createdAt,value
2022-10-24T00:02:59.488Z,1.80
2022-10-24T00:06:30.405Z,1.40
2022-10-24T00:09:30.467Z,1.67
2022-10-24T00:12:46.595Z,1.00
2022-10-24T00:16:00.488Z,1.67
2022-10-24T00:19:28.454Z,1.20
2022-10-24T00:22:31.495Z,1.23
2022-10-24T00:25:44.520Z,2.00
2022-10-24T00:28:56.541Z,1.40
2022-10-24T00:32:28.509Z,1.40
2022-10-24T00:35:43.519Z,1.40
2022-10-24T00:39:13.466Z,1.83
2022-10-24T00:42:19.541Z,1.90
2022-10-24T00:45:58.551Z,1.00
2022-10-24T00:49:15.655Z,1.30
2022-10-24T00:52:43.585Z,1.15
2022-10-24T00:55:55.544Z,1.47
2022-10-24T00:59:27.543Z,2.00
2022-10-24T01:02:27.581Z,1.57
2022-10-24T01:05:57.629Z,1.30
2022-10-24T01:09:12.625Z,1.70
2022-10-24T01:12:40.700Z,1.73
2022-10-24T01:15:53.644Z,1.60
2022-10-24T01:19:23.618Z,1.40
2022-10-24T01:22:40.655Z,2.33
2022-10-24T01:26:03.626Z,1.57
2022-10-24T01:29:21.685Z,1.60
2022-10-24T01:32:50.691Z,1.80
2022-10-24T01:36:02.693Z,2.07
2022-10-24T01:39:30.779Z,1.90
2022-10-24T01:42:42.699Z,1.90
2022-10-24T01:46:06.732Z,1.53
2022-10-24T01:49:26.738Z,1.70
2022-10-24T01:52:50.720Z,2.00
2022-10-24T01:56:05.759Z,2.00
2022-10-24T01:59:30.741Z,1.80
2022-10-24T02:02:46.023Z,1.67
2022-10-24T02:06:15.785Z,1.83
2022-10-24T02:09:30.865Z,1.60
2022-10-24T02:12:57.819Z,2.10
2022-10-24T02:16:15.817Z,1.57
2022-10-24T02:19:39.846Z,2.10
2022-10-24T02:22:59.860Z,2.27
2022-10-24T02:26:29.862Z,1.60
2022-10-24T02:29:44.879Z,2.00
2022-10-24T02:33:09.896Z,1.63
2022-10-24T02:36:24.849Z,1.97
2022-10-24T02:39:53.946Z,1.57
2022-10-24T02:43:05.897Z,1.97
2022-10-24T02:46:29.866Z,2.25
2022-10-24T02:49:44.900Z,1.80
2022-10-24T02:53:08.938Z,1.57
2022-10-24T02:56:25.947Z,1.87
2022-10-24T02:59:38.953Z,1.43
2022-10-24T03:02:42.156Z,1.93
2022-10-24T03:05:56.997Z,2.03
2022-10-24T03:08:59.951Z,2.00
2022-10-24T03:12:28.966Z,1.93
2022-10-24T03:15:28.991Z,1.70
2022-10-24T03:18:56.012Z,2.43
2022-10-24T03:21:56.033Z,2.27
2022-10-24T03:25:15.060Z,1.80
2022-10-24T03:28:30.978Z,2.10
2022-10-24T03:31:49.053Z,2.27
2022-10-24T03:35:04.024Z,1.90
2022-10-24T03:38:26.029Z,2.30
2022-10-24T03:41:29.135Z,2.47
2022-10-24T03:44:58.102Z,2.40
2022-10-24T03:47:58.132Z,1.90
2022-10-24T03:51:17.087Z,1.50
2022-10-24T03:54:20.135Z,1.75
2022-10-24T03:57:35.188Z,2.03
2022-10-24T04:00:52.138Z,1.63
2022-10-24T04:04:22.182Z,1.55
2022-10-24T04:07:25.210Z,1.93
2022-10-24T04:10:53.140Z,1.55
2022-10-24T04:13:54.282Z,1.65
2022-10-24T04:17:23.282Z,2.10
2022-10-24T04:20:26.206Z,1.70
2022-10-24T04:23:45.289Z,1.20
2022-10-24T04:26:49.197Z,2.40
2022-10-24T04:30:07.232Z,1.70
2022-10-24T04:33:21.207Z,2.23
2022-10-24T04:36:45.258Z,1.40
2022-10-24T04:39:45.249Z,1.40
2022-10-24T04:42:57.484Z,1.63
2022-10-24T04:46:12.253Z,1.17
2022-10-24T04:49:39.278Z,1.50
2022-10-24T04:52:42.291Z,1.60
2022-10-24T04:56:01.338Z,1.50
2022-10-24T04:59:16.325Z,2.10
2022-10-24T05:02:31.376Z,1.60
2022-10-24T05:05:48.364Z,2.00
2022-10-24T05:09:04.326Z,1.75
2022-10-24T05:12:22.398Z,1.70
2022-10-24T05:15:47.444Z,1.70
2022-10-24T05:18:47.395Z,1.37
2022-10-24T05:22:20.378Z,1.20
2022-10-24T05:25:32.423Z,1.50
2022-10-24T05:28:47.620Z,1.40
2022-10-24T05:31:47.468Z,1.10
2022-10-24T05:35:02.455Z,1.27
2022-10-24T05:38:16.517Z,1.40
2022-10-24T05:41:29.433Z,1.30
2022-10-24T05:44:32.466Z,1.53
2022-10-24T05:48:02.504Z,1.10
2022-10-24T05:51:20.511Z,1.53
2022-10-24T05:54:55.689Z,1.70
2022-10-24T05:58:01.599Z,1.20
2022-10-24T06:01:16.585Z,1.20
2022-10-24T06:04:32.556Z,1.67
2022-10-24T06:07:32.579Z,1.30
2022-10-24T06:11:01.506Z,1.30
2022-10-24T06:14:07.625Z,1.40
2022-10-24T06:17:26.577Z,1.03
2022-10-24T06:20:41.569Z,1.40
2022-10-24T06:23:56.662Z,1.40
2022-10-24T06:27:13.566Z,1.25
2022-10-24T06:30:25.608Z,2.03
2022-10-24T06:33:25.637Z,1.75
2022-10-24T06:36:46.641Z,1.70
2022-10-24T06:39:49.647Z,1.27
2022-10-24T06:43:21.615Z,1.80
2022-10-24T06:46:33.773Z,1.43
2022-10-24T06:50:03.692Z,1.40
2022-10-24T06:53:09.793Z,1.10
2022-10-24T06:56:21.713Z,1.30
2022-10-24T06:59:38.732Z,1.40
2022-10-24T07:02:59.752Z,1.15
2022-10-24T07:06:02.779Z,1.27
2022-10-24T07:09:32.764Z,1.30
2022-10-24T07:12:39.765Z,1.50
2022-10-24T07:16:06.714Z,1.20
2022-10-24T07:19:09.767Z,1.63
2022-10-24T07:22:37.796Z,1.20
2022-10-24T07:25:37.785Z,1.53
2022-10-24T07:29:04.853Z,2.00
2022-10-24T07:32:17.855Z,1.17
2022-10-24T07:35:29.771Z,1.20
2022-10-24T07:38:44.877Z,1.23
2022-10-24T07:41:56.943Z,1.40
2022-10-24T07:45:00.898Z,1.13
2022-10-24T07:48:26.821Z,1.50
2022-10-24T07:51:42.855Z,1.30
2022-10-24T07:54:54.877Z,1.40
2022-10-24T07:57:57.882Z,1.40
2022-10-24T08:01:27.861Z,1.70
2022-10-24T08:04:59.972Z,1.20
2022-10-24T08:08:21.799Z,1.50
2022-10-24T08:11:30.915Z,1.23
2022-10-24T08:14:33.911Z,1.80
2022-10-24T08:17:49.948Z,1.55
2022-10-24T08:21:07.934Z,1.77
2022-10-24T08:24:21.057Z,1.40
2022-10-24T08:27:20.951Z,1.25
2022-10-24T08:30:44.960Z,1.50
2022-10-24T08:34:00.055Z,1.45
2022-10-24T08:37:28.091Z,1.20
2022-10-24T08:40:43.036Z,1.40
2022-10-24T08:44:07.047Z,1.30
2022-10-24T08:47:20.020Z,1.10
2022-10-24T08:50:45.080Z,1.70
2022-10-24T08:54:08.008Z,1.35
2022-10-24T08:57:35.099Z,1.70
2022-10-24T09:00:47.052Z,1.20
2022-10-24T09:04:11.060Z,1.17
2022-10-24T09:07:26.080Z,2.53
2022-10-24T09:10:59.139Z,2.30
2022-10-24T09:14:11.175Z,1.25
2022-10-24T09:17:42.231Z,1.65
2022-10-24T09:20:54.123Z,1.23
2022-10-24T09:24:22.166Z,1.47
2022-10-24T09:27:39.126Z,1.83
2022-10-24T09:31:12.173Z,1.37
2022-10-24T09:34:18.146Z,1.00
2022-10-24T09:37:56.243Z,1.60
2022-10-24T09:41:14.145Z,1.80
2022-10-24T09:45:00.211Z,1.20
2022-10-24T09:48:19.223Z,1.17
2022-10-24T09:51:50.227Z,1.50
2022-10-24T09:55:00.272Z,1.30
2022-10-24T09:58:33.268Z,1.35
2022-10-24T10:01:50.337Z,1.70
2022-10-24T10:05:20.303Z,1.20
2022-10-24T10:08:34.323Z,1.00
2022-10-24T10:12:05.278Z,0.97
2022-10-24T10:15:17.374Z,1.25
2022-10-24T10:18:53.326Z,1.50
2022-10-24T10:22:17.318Z,1.43
2022-10-24T10:25:52.306Z,1.80
2022-10-24T10:29:10.355Z,0.80
2022-10-24T10:32:37.341Z,1.50
2022-10-24T10:35:51.377Z,1.00
2022-10-24T10:39:18.315Z,1.20
2022-10-24T10:42:33.410Z,1.13
2022-10-24T10:46:05.387Z,1.23
2022-10-24T10:49:22.423Z,0.90
2022-10-24T10:52:51.458Z,1.40
2022-10-24T10:56:06.459Z,1.10
2022-10-24T10:59:32.426Z,1.10
2022-10-24T11:02:54.746Z,0.97
2022-10-24T11:06:18.531Z,1.20
2022-10-24T11:09:45.444Z,1.65
2022-10-24T11:13:12.653Z,1.20
2022-10-24T11:16:27.491Z,1.50
2022-10-24T11:19:57.447Z,1.33
2022-10-24T11:23:01.494Z,1.13
2022-10-24T11:26:30.745Z,1.17
2022-10-24T11:29:49.511Z,1.13
2022-10-24T11:33:14.528Z,1.00
2022-10-24T11:36:21.593Z,0.70
2022-10-24T11:39:46.592Z,1.10
2022-10-24T11:43:00.532Z,1.17
2022-10-24T11:46:24.582Z,0.90
2022-10-24T11:49:43.586Z,0.90
2022-10-24T11:53:07.598Z,1.20
2022-10-24T11:56:26.291Z,1.15
2022-10-24T11:59:51.612Z,1.33
2022-10-24T12:03:20.602Z,1.00
2022-10-24T12:06:52.670Z,1.00
2022-10-24T12:10:13.659Z,0.93
2022-10-24T12:13:47.680Z,1.20
2022-10-24T12:17:04.678Z,1.20
2022-10-24T12:20:33.733Z,1.00
2022-10-24T12:23:45.679Z,0.80
2022-10-24T12:27:22.658Z,1.40
2022-10-24T12:30:40.779Z,0.80
2022-10-24T12:34:13.691Z,1.05
2022-10-24T12:37:35.749Z,1.20
2022-10-24T12:41:15.762Z,1.23
2022-10-24T12:44:34.718Z,0.90
2022-10-24T12:48:05.776Z,1.27
2022-10-24T12:51:26.803Z,1.15
2022-10-24T12:55:02.802Z,0.77
2022-10-24T12:58:20.827Z,0.90
2022-10-24T13:01:48.953Z,0.70
2022-10-24T13:04:55.822Z,1.10
2022-10-24T13:08:29.782Z,0.80
2022-10-24T13:11:54.164Z,1.00
2022-10-24T13:15:22.851Z,0.75
2022-10-24T13:18:39.836Z,0.80
2022-10-24T13:22:12.854Z,1.10
2022-10-24T13:25:26.862Z,0.97
2022-10-24T13:28:57.870Z,1.00
2022-10-24T13:32:04.937Z,1.10
2022-10-24T13:35:37.896Z,0.90
2022-10-24T13:38:55.917Z,0.60
2022-10-24T13:42:22.955Z,0.90
2022-10-24T13:45:42.962Z,0.90
2022-10-24T13:49:12.932Z,0.60
2022-10-24T13:52:27.974Z,0.80
2022-10-24T13:55:58.018Z,0.90
2022-10-24T13:59:14.979Z,1.00
2022-10-24T14:02:39.050Z,1.10
2022-10-24T14:06:03.044Z,0.87
2022-10-24T14:09:18.021Z,0.57
2022-10-24T14:12:46.134Z,0.60
2022-10-24T14:16:03.051Z,1.33
2022-10-24T14:19:38.117Z,1.20
2022-10-24T14:22:48.322Z,1.73
2022-10-24T14:26:20.114Z,1.47
2022-10-24T14:29:42.104Z,1.13
2022-10-24T14:33:14.075Z,1.10
2022-10-24T14:36:26.100Z,1.27
2022-10-24T14:39:50.123Z,0.70
2022-10-24T14:43:05.174Z,1.13
2022-10-24T14:46:36.111Z,0.57
2022-10-24T14:49:53.182Z,0.80
2022-10-24T14:53:08.120Z,1.40
2022-10-24T14:56:26.163Z,1.10
2022-10-24T14:59:54.129Z,1.10
2022-10-24T15:03:09.223Z,0.90
2022-10-24T15:06:35.279Z,1.00
2022-10-24T15:09:56.251Z,1.07
2022-10-24T15:13:25.199Z,0.90
2022-10-24T15:16:47.262Z,0.80
2022-10-24T15:20:11.268Z,0.60
2022-10-24T15:23:28.263Z,0.90
2022-10-24T15:26:52.242Z,0.90
2022-10-24T15:29:55.239Z,1.07
2022-10-24T15:33:20.292Z,1.20
2022-10-24T15:36:36.358Z,0.70
2022-10-24T15:40:02.288Z,1.27
2022-10-24T15:43:11.367Z,1.40
2022-10-24T15:46:27.331Z,1.07
2022-10-24T15:49:42.321Z,0.80
2022-10-24T15:53:09.363Z,1.70
2022-10-24T15:56:29.405Z,0.93
2022-10-24T15:59:47.594Z,0.80
2022-10-24T16:02:59.411Z,1.27
2022-10-24T16:06:11.384Z,1.20
2022-10-24T16:09:11.403Z,1.20
2022-10-24T16:12:43.407Z,1.07
2022-10-24T16:16:04.428Z,1.10
2022-10-24T16:19:17.486Z,0.90
2022-10-24T16:22:20.419Z,0.80
2022-10-24T16:25:55.388Z,1.27
2022-10-24T16:29:12.490Z,1.10
2022-10-24T16:32:39.473Z,1.40
2022-10-24T16:35:54.444Z,1.10
2022-10-24T16:39:09.499Z,1.75
2022-10-24T16:42:09.509Z,1.30
2022-10-24T16:45:28.505Z,1.30
2022-10-24T16:48:42.504Z,1.20
2022-10-24T16:51:58.509Z,1.20
2022-10-24T16:55:13.547Z,1.25
2022-10-24T16:58:40.617Z,1.20
2022-10-24T17:01:46.604Z,0.85
2022-10-24T17:05:05.569Z,1.40
2022-10-24T17:08:22.600Z,1.20
2022-10-24T17:11:45.359Z,1.27
2022-10-24T17:14:55.558Z,1.20
2022-10-24T17:18:08.716Z,1.60
2022-10-24T17:21:27.946Z,1.40
2022-10-24T17:24:55.632Z,1.10
2022-10-24T17:28:10.657Z,1.30
2022-10-24T17:31:41.660Z,0.80
2022-10-24T17:34:56.639Z,1.40
2022-10-24T17:38:26.711Z,1.45
2022-10-24T17:41:43.662Z,1.40
2022-10-24T17:45:00.858Z,0.90
2022-10-24T17:48:12.694Z,1.27
2022-10-24T17:51:36.698Z,1.50
2022-10-24T17:54:44.786Z,1.50
2022-10-24T17:58:08.825Z,1.40
2022-10-24T18:01:08.865Z,1.63
2022-10-24T18:04:23.784Z,1.43
2022-10-24T18:07:26.765Z,1.40
2022-10-24T18:10:54.810Z,1.57
2022-10-24T18:14:08.758Z,1.37
2022-10-24T18:17:20.764Z,1.40
2022-10-24T18:20:36.794Z,1.40
2022-10-24T18:24:03.777Z,1.33
2022-10-24T18:27:06.793Z,1.30
2022-10-24T18:30:36.813Z,1.33
2022-10-24T18:33:39.915Z,1.50
2022-10-24T18:36:57.976Z,1.30
2022-10-24T18:39:58.855Z,1.65
2022-10-24T18:43:25.946Z,1.30
2022-10-24T18:46:42.887Z,1.40
2022-10-24T18:50:13.945Z,1.30
2022-10-24T18:53:44.991Z,1.30
2022-10-24T18:57:11.924Z,1.47
2022-10-24T19:00:26.887Z,1.77
2022-10-24T19:03:58.993Z,1.23
2022-10-24T19:07:13.935Z,1.07
2022-10-24T19:10:45.934Z,1.50
2022-10-24T19:13:45.970Z,1.50
2022-10-24T19:17:13.974Z,1.47
2022-10-24T19:20:31.980Z,1.10
2022-10-24T19:23:48.116Z,1.05
2022-10-24T19:26:50.988Z,1.33
2022-10-24T19:30:06.001Z,1.65
2022-10-24T19:33:05.972Z,1.70
2022-10-24T19:36:42.052Z,2.10
2022-10-24T19:39:45.058Z,1.60
2022-10-24T19:42:57.067Z,1.40
2022-10-24T19:46:14.705Z,1.27
2022-10-24T19:49:13.086Z,1.30
2022-10-24T19:52:27.042Z,1.70
2022-10-24T19:56:00.088Z,1.93
2022-10-24T19:59:15.123Z,1.50
2022-10-24T20:02:30.143Z,1.30
2022-10-24T20:05:57.138Z,1.80
2022-10-24T20:09:11.111Z,1.17
2022-10-24T20:12:27.126Z,1.23
2022-10-24T20:15:33.157Z,1.83
2022-10-24T20:18:57.174Z,1.00
2022-10-24T20:22:02.369Z,1.45
2022-10-24T20:25:30.239Z,1.10
2022-10-24T20:28:30.217Z,1.30
2022-10-24T20:31:57.213Z,1.20
2022-10-24T20:35:03.200Z,1.30
2022-10-24T20:38:28.182Z,1.20
2022-10-24T20:41:44.228Z,1.37
2022-10-24T20:45:02.295Z,1.17
2022-10-24T20:48:20.226Z,0.97
2022-10-24T20:51:45.270Z,1.43
2022-10-24T20:54:45.299Z,1.77
2022-10-24T20:58:16.313Z,1.40
2022-10-24T21:01:31.471Z,1.30
2022-10-24T21:04:47.333Z,1.20
2022-10-24T21:07:50.278Z,1.87
2022-10-24T21:11:06.464Z,1.47
2022-10-24T21:14:23.599Z,1.40
2022-10-24T21:17:39.328Z,1.30
2022-10-24T21:20:45.328Z,2.00
2022-10-24T21:24:14.353Z,1.53
2022-10-24T21:27:17.407Z,1.77
2022-10-24T21:30:47.391Z,1.43
2022-10-24T21:34:02.420Z,1.50
2022-10-24T21:37:29.364Z,1.70
2022-10-24T21:40:32.401Z,1.20
2022-10-24T21:44:05.405Z,1.50
2022-10-24T21:47:22.454Z,1.60
2022-10-24T21:50:35.555Z,1.37
2022-10-24T21:53:35.497Z,1.47
2022-10-24T21:56:51.636Z,2.17
2022-10-24T21:59:54.481Z,1.40
2022-10-24T22:03:08.512Z,1.50
2022-10-24T22:06:33.500Z,1.70
2022-10-24T22:09:36.492Z,1.70
2022-10-24T22:12:51.533Z,1.70
2022-10-24T22:16:07.509Z,1.83
2022-10-24T22:19:36.515Z,1.00
2022-10-24T22:22:42.539Z,1.83
2022-10-24T22:26:01.538Z,2.40
2022-10-24T22:29:13.540Z,1.75
2022-10-24T22:32:32.570Z,1.50
2022-10-24T22:35:52.536Z,1.30
2022-10-24T22:39:09.613Z,1.70
2022-10-24T22:42:16.116Z,1.57
2022-10-24T22:45:32.654Z,1.10
2022-10-24T22:48:47.570Z,1.50
2022-10-24T22:52:17.617Z,1.55
2022-10-24T22:55:42.631Z,1.60
2022-10-24T22:59:09.647Z,2.23
2022-10-24T23:02:27.841Z,1.40
2022-10-24T23:05:54.688Z,2.20
2022-10-24T23:09:08.669Z,1.93
2022-10-24T23:12:38.736Z,2.60
2022-10-24T23:15:45.812Z,2.17
2022-10-24T23:18:58.685Z,2.50
2022-10-24T23:22:20.724Z,2.40
2022-10-24T23:25:49.780Z,2.57
2022-10-24T23:29:04.738Z,2.40
2022-10-24T23:32:35.764Z,2.60
2022-10-24T23:35:39.780Z,2.90
2022-10-24T23:38:53.749Z,3.90
2022-10-24T23:42:10.800Z,3.93
2022-10-24T23:45:37.765Z,3.73
2022-10-24T23:48:53.790Z,4.15
2022-10-24T23:52:20.829Z,4.25
2022-10-24T23:55:35.845Z,4.60
2022-10-24T23:59:05.837Z,4.27
